New Lebanon, Indiana
Current Conditions -  °F | °C
As of 3:15 AM on Thursday 29 Jan 2015 (Local Time) from KRSV Reporting Station
Broken Clouds Broken Clouds  
Wind Chill: 31°   Ceiling: 11000
Heat Index: 40°   Visibility: 10mi
Dew Point: 32°   Wind: 16mph
Humidity: 75%   Direction: 180°S
Pressure: 29.87"   Gusts: NA
Location:  39.04°N, 87.47°W
Report Text: KRSV 290815Z AUTO 18014KT 10SM BKN110 04/00 A2987 RMK AO2 T00420002
Loading
Personal Weather Stations






























Interactive Weather Map New forecast layout! Learn more

10-Day Weather Forecast

Advertisements
Track Severe Weather on mobile